createdAt,value
2019-05-13T00:02:17.453Z,101633.94
2019-05-13T00:04:48.932Z,101630.71
2019-05-13T00:07:20.298Z,101632.78
2019-05-13T00:09:51.684Z,101638.53
2019-05-13T00:12:23.981Z,101635.88
2019-05-13T00:14:55.661Z,101640.42
2019-05-13T00:17:27.021Z,101639.61
2019-05-13T00:19:58.606Z,101639.71
2019-05-13T00:22:29.891Z,101641.68
2019-05-13T00:25:03.838Z,101649.75
2019-05-13T00:27:34.254Z,101647.97
2019-05-13T00:30:07.049Z,101652.49
2019-05-13T00:32:38.343Z,101649.84
2019-05-13T00:35:09.723Z,101648.97
2019-05-13T00:37:44.037Z,101651.63
2019-05-13T00:40:15.285Z,101647.64
2019-05-13T00:42:46.586Z,101647.64
2019-05-13T00:45:17.942Z,101651.63
2019-05-13T00:47:49.232Z,101643.11
2019-05-13T00:50:20.844Z,101640.45
2019-05-13T00:52:53.647Z,101643.02
2019-05-13T00:55:25.200Z,101645.26
2019-05-13T00:57:56.483Z,101646.48
2019-05-13T01:00:27.874Z,101649.55
2019-05-13T01:02:59.156Z,101644.92
2019-05-13T01:05:30.538Z,101649.27
2019-05-13T01:08:04.095Z,101657.09
2019-05-13T01:10:34.911Z,101653.87
2019-05-13T01:13:06.191Z,101658.31
2019-05-13T01:15:37.628Z,101658.83
2019-05-13T01:18:10.199Z,101660.23
2019-05-13T01:20:43.704Z,101659.75
2019-05-13T01:23:15.791Z,101665.75
2019-05-13T01:25:47.213Z,101661.14
2019-05-13T01:28:18.539Z,101660.73
2019-05-13T01:33:54.365Z,101666.22
2019-05-13T01:36:25.717Z,101665.57
2019-05-13T01:38:57.107Z,101672.12
2019-05-13T01:41:30.443Z,101668.43
2019-05-13T01:44:04.130Z,101674.67
2019-05-13T01:46:36.606Z,101676.41
2019-05-13T01:49:07.974Z,101669.45
2019-05-13T01:51:40.293Z,101672.02
2019-05-13T01:54:14.349Z,101668.43
2019-05-13T01:56:46.868Z,101673.15
2019-05-13T01:59:18.315Z,101664.71
2019-05-13T02:01:50.704Z,101661.13
2019-05-13T02:04:24.412Z,101665.63
2019-05-13T02:06:55.344Z,101660.45
2019-05-13T02:09:26.893Z,101663.22
2019-05-13T02:11:58.180Z,101664.81
2019-05-13T02:14:29.699Z,101662.25
2019-05-13T02:17:00.998Z,101669.67
2019-05-13T02:19:34.946Z,101662.05
2019-05-13T02:22:06.357Z,101665.53
2019-05-13T02:24:37.892Z,101664.20
2019-05-13T02:27:09.219Z,101661.70
2019-05-13T02:29:40.638Z,101661.07
2019-05-13T02:32:13.713Z,101668.95
2019-05-13T02:34:45.053Z,101657.13
2019-05-13T02:37:16.339Z,101662.91
2019-05-13T02:39:47.722Z,101664.25
2019-05-13T02:42:22.583Z,101660.66
2019-05-13T02:44:52.909Z,101655.75
2019-05-13T02:47:24.571Z,101658.14
2019-05-13T02:50:00.370Z,101660.25
2019-05-13T02:52:28.975Z,101664.66
2019-05-13T02:55:03.832Z,101661.07
2019-05-13T02:57:33.530Z,101661.53
2019-05-13T03:00:08.732Z,101658.30
2019-05-13T03:02:43.290Z,101659.91
2019-05-13T03:05:13.925Z,101659.14
2019-05-13T03:07:45.441Z,101659.41
2019-05-13T03:10:16.925Z,101661.14
2019-05-13T03:12:48.209Z,101667.28
2019-05-13T03:15:22.922Z,101670.65
2019-05-13T03:17:54.199Z,101675.34
2019-05-13T03:20:25.830Z,101671.22
2019-05-13T03:22:57.265Z,101676.77
2019-05-13T03:25:28.949Z,101683.27
2019-05-13T03:28:03.110Z,101691.14
2019-05-13T03:30:35.192Z,101688.33
2019-05-13T03:33:10.850Z,101687.69
2019-05-13T03:35:44.777Z,101686.76
2019-05-13T03:38:13.033Z,101693.94
2019-05-13T03:40:44.489Z,101685.83
2019-05-13T03:43:16.712Z,101689.55
2019-05-13T03:45:48.173Z,101689.39
2019-05-13T03:48:23.623Z,101689.39
2019-05-13T03:50:54.430Z,101696.99
2019-05-13T03:53:25.837Z,101693.39
2019-05-13T03:55:57.247Z,101695.09
2019-05-13T03:58:32.152Z,101695.84
2019-05-13T04:01:02.840Z,101696.63
2019-05-13T04:03:34.438Z,101703.08
2019-05-13T04:06:05.846Z,101700.75
2019-05-13T04:08:37.263Z,101694.27
2019-05-13T04:11:12.311Z,101692.95
2019-05-13T04:13:43.094Z,101692.13
2019-05-13T04:16:14.896Z,101693.47
2019-05-13T04:18:46.770Z,101698.37
2019-05-13T04:21:18.644Z,101708.63
2019-05-13T04:23:53.111Z,101709.13
2019-05-13T04:26:24.206Z,101702.48
2019-05-13T04:28:55.693Z,101701.69
2019-05-13T04:31:27.369Z,101698.00
2019-05-13T04:34:02.029Z,101699.03
2019-05-13T04:36:32.211Z,101705.07
2019-05-13T04:39:05.353Z,101705.13
2019-05-13T04:41:36.814Z,101701.91
2019-05-13T04:44:08.221Z,101700.25
2019-05-13T04:46:43.202Z,101700.78
2019-05-13T04:49:13.241Z,101693.31
2019-05-13T04:51:44.780Z,101693.31
2019-05-13T04:54:16.332Z,101701.56
2019-05-13T04:56:47.844Z,101704.98
2019-05-13T04:59:22.434Z,101710.91
2019-05-13T05:02:18.118Z,101704.20
2019-05-13T05:04:53.593Z,101712.30
2019-05-13T05:07:42.092Z,101714.80
2019-05-13T05:10:38.705Z,101712.69
2019-05-13T05:13:27.706Z,101713.33
2019-05-13T05:16:13.792Z,101705.42
2019-05-13T05:19:04.720Z,101707.34
2019-05-13T05:21:55.445Z,101712.15
2019-05-13T05:24:36.446Z,101714.83
2019-05-13T05:27:35.279Z,101718.63
2019-05-13T05:30:26.090Z,101724.94
2019-05-13T05:33:21.588Z,101724.60
2019-05-13T05:36:16.801Z,101720.77
2019-05-13T05:39:12.349Z,101725.97
2019-05-13T05:41:43.697Z,101723.82
2019-05-13T05:44:15.120Z,101725.47
2019-05-13T05:46:46.661Z,101726.28
2019-05-13T05:49:18.051Z,101729.41
2019-05-13T05:51:51.484Z,101731.78
2019-05-13T05:54:22.760Z,101728.75
2019-05-13T05:56:54.707Z,101727.93
2019-05-13T05:59:26.065Z,101728.59
2019-05-13T06:01:57.582Z,101728.53
2019-05-13T06:04:32.445Z,101726.34
2019-05-13T06:07:04.857Z,101720.81
2019-05-13T06:09:36.368Z,101723.69
2019-05-13T06:12:07.896Z,101725.74
2019-05-13T06:14:39.308Z,101732.76
2019-05-13T06:17:11.758Z,101727.84
2019-05-13T06:19:43.207Z,101727.42
2019-05-13T06:22:14.715Z,101730.39
2019-05-13T06:24:46.315Z,101725.09
2019-05-13T06:27:17.839Z,101727.53
2019-05-13T06:29:52.531Z,101730.33
2019-05-13T06:32:26.225Z,101727.97
2019-05-13T06:34:55.524Z,101721.37
2019-05-13T06:37:27.041Z,101718.33
2019-05-13T06:39:58.615Z,101716.21
2019-05-13T06:42:32.471Z,101724.16
2019-05-13T06:45:03.447Z,101715.59
2019-05-13T06:47:36.344Z,101719.27
2019-05-13T06:50:07.909Z,101717.34
2019-05-13T06:52:39.489Z,101709.67
2019-05-13T06:55:35.052Z,101701.55
2019-05-13T06:58:06.760Z,101701.55
2019-05-13T07:00:38.200Z,101701.72
2019-05-13T07:03:11.968Z,101703.59
2019-05-13T07:05:45.451Z,101693.94
2019-05-13T07:08:16.851Z,101689.34
2019-05-13T07:10:48.363Z,101687.66
2019-05-13T07:13:21.793Z,101692.16
2019-05-13T07:15:53.354Z,101690.98
2019-05-13T07:18:24.871Z,101683.73
2019-05-13T07:20:56.294Z,101688.61
2019-05-13T07:23:27.743Z,101685.91
2019-05-13T07:26:01.793Z,101694.60
2019-05-13T07:28:33.648Z,101698.61
2019-05-13T07:31:05.073Z,101693.05
2019-05-13T07:33:36.682Z,101691.63
2019-05-13T07:36:08.232Z,101688.66
2019-05-13T07:38:41.543Z,101689.50
2019-05-13T07:41:13.057Z,101691.00
2019-05-13T07:43:44.714Z,101688.16
2019-05-13T07:46:16.144Z,101683.00
2019-05-13T07:48:47.646Z,101685.81
2019-05-13T07:51:19.008Z,101670.48
2019-05-13T07:53:51.819Z,101670.70
2019-05-13T07:56:22.792Z,101677.89
2019-05-13T07:58:54.022Z,101674.52
2019-05-13T08:01:25.471Z,101685.34
2019-05-13T08:03:57.028Z,101681.84
2019-05-13T08:06:28.480Z,101680.58
2019-05-13T08:09:01.657Z,101687.18
2019-05-13T08:11:36.889Z,101689.75
2019-05-13T08:14:07.402Z,101685.45
2019-05-13T08:16:38.852Z,101681.44
2019-05-13T08:19:12.283Z,101679.17
2019-05-13T08:21:43.548Z,101669.03
2019-05-13T08:24:15.262Z,101663.94
2019-05-13T08:26:49.883Z,101666.75
2019-05-13T08:29:21.499Z,101675.81
2019-05-13T08:31:52.082Z,101661.95
2019-05-13T08:34:23.661Z,101666.87
2019-05-13T08:36:55.846Z,101667.28
2019-05-13T08:39:33.465Z,101666.72
2019-05-13T08:42:15.638Z,101665.03
2019-05-13T08:44:35.101Z,101663.61
2019-05-13T08:47:06.122Z,101666.61
2019-05-13T08:49:37.815Z,101665.13
2019-05-13T08:52:11.855Z,101666.28
2019-05-13T08:54:42.355Z,101660.84
2019-05-13T08:57:13.763Z,101659.48
2019-05-13T08:59:45.509Z,101661.84
2019-05-13T09:02:16.841Z,101656.48
2019-05-13T09:04:48.391Z,101652.78
2019-05-13T09:07:23.894Z,101657.59
2019-05-13T09:09:53.114Z,101655.11
2019-05-13T09:12:31.947Z,101653.77
2019-05-13T09:14:59.146Z,101651.70
2019-05-13T09:17:31.865Z,101662.42
2019-05-13T09:20:04.808Z,101653.91
2019-05-13T09:22:36.126Z,101646.99
2019-05-13T09:25:08.077Z,101648.60
2019-05-13T09:27:42.317Z,101656.16
2019-05-13T09:30:13.156Z,101653.46
2019-05-13T09:32:44.590Z,101649.55
2019-05-13T09:35:15.999Z,101643.50
2019-05-13T09:37:47.377Z,101648.77
2019-05-13T09:40:18.998Z,101648.59
2019-05-13T09:42:54.461Z,101645.57
2019-05-13T09:45:23.847Z,101646.41
2019-05-13T09:47:55.241Z,101645.62
2019-05-13T09:50:32.185Z,101651.70
2019-05-13T09:53:02.518Z,101643.50
2019-05-13T09:55:33.069Z,101642.48
2019-05-13T09:58:05.699Z,101645.46
2019-05-13T10:00:36.921Z,101647.98
2019-05-13T10:03:13.563Z,101644.72
2019-05-13T10:05:43.806Z,101649.81
2019-05-13T10:08:15.105Z,101639.63
2019-05-13T10:10:46.718Z,101638.67
2019-05-13T10:13:18.050Z,101640.31
2019-05-13T10:15:49.706Z,101642.97
2019-05-13T10:18:21.884Z,101641.62
2019-05-13T10:21:02.096Z,101639.58
2019-05-13T10:23:33.628Z,101636.52
2019-05-13T10:26:07.686Z,101638.22
2019-05-13T10:28:39.220Z,101639.50
2019-05-13T10:31:12.006Z,101633.05
2019-05-13T10:33:43.508Z,101634.05
2019-05-13T10:36:15.143Z,101640.69
2019-05-13T10:38:48.929Z,101634.45
2019-05-13T10:41:22.222Z,101632.47
2019-05-13T10:43:53.387Z,101635.17
2019-05-13T10:46:25.636Z,101627.31
2019-05-13T10:48:57.009Z,101624.62
2019-05-13T10:51:28.583Z,101617.83
2019-05-13T10:54:00.043Z,101616.19
2019-05-13T10:56:32.816Z,101617.08
2019-05-13T10:59:04.402Z,101612.56
2019-05-13T11:01:37.435Z,101612.81
2019-05-13T11:06:41.800Z,101605.66
2019-05-13T11:09:13.416Z,101603.98
2019-05-13T11:11:44.854Z,101603.69
2019-05-13T11:14:16.223Z,101606.82
2019-05-13T11:16:47.715Z,101600.36
2019-05-13T11:19:19.028Z,101603.06
2019-05-13T11:21:52.470Z,101599.25
2019-05-13T11:24:23.831Z,101593.27
2019-05-13T11:26:55.812Z,101593.96
2019-05-13T11:29:27.478Z,101589.30
2019-05-13T11:31:59.094Z,101584.41
2019-05-13T11:34:32.955Z,101581.84
2019-05-13T11:37:03.983Z,101587.09
2019-05-13T11:39:35.466Z,101581.92
2019-05-13T11:42:07.319Z,101578.45
2019-05-13T11:44:38.792Z,101571.69
2019-05-13T11:47:12.759Z,101578.52
2019-05-13T11:49:43.855Z,101566.28
2019-05-13T11:52:15.442Z,101559.45
2019-05-13T11:54:46.764Z,101565.39
2019-05-13T11:57:18.225Z,101552.32
2019-05-13T11:59:52.463Z,101551.20
2019-05-13T12:02:23.418Z,101627.41
2019-05-13T12:04:55.922Z,101567.50
2019-05-13T12:07:27.522Z,101585.58
2019-05-13T12:09:59.117Z,101582.80
2019-05-13T12:12:34.438Z,101579.94
2019-05-13T12:15:27.159Z,101589.94
2019-05-13T12:17:43.108Z,101580.84
2019-05-13T12:20:16.281Z,101582.66
2019-05-13T12:22:48.309Z,101584.06
2019-05-13T12:25:22.417Z,101582.33
2019-05-13T12:27:53.013Z,101588.03
2019-05-13T12:30:24.696Z,101584.73
2019-05-13T12:32:56.396Z,101583.80
2019-05-13T12:35:28.037Z,101566.60
2019-05-13T12:37:59.802Z,101554.25
2019-05-13T12:40:33.882Z,101551.38
2019-05-13T12:43:07.361Z,101550.04
2019-05-13T12:45:43.196Z,101549.30
2019-05-13T12:48:16.194Z,101549.17
2019-05-13T12:50:47.730Z,101551.97
2019-05-13T12:53:22.123Z,101542.28
2019-05-13T12:55:57.343Z,101539.59
2019-05-13T12:58:33.988Z,101538.16
2019-05-13T13:01:03.040Z,101535.55
2019-05-13T13:03:34.887Z,101534.63
2019-05-13T13:08:44.662Z,101525.30
2019-05-13T13:11:17.096Z,101527.91
2019-05-13T13:13:59.788Z,101524.56
2019-05-13T13:16:23.891Z,101519.96
2019-05-13T13:18:56.182Z,101522.88
2019-05-13T13:21:36.849Z,101515.67
2019-05-13T13:24:04.470Z,101517.09
2019-05-13T13:26:35.875Z,101510.96
2019-05-13T13:29:07.763Z,101509.22
2019-05-13T13:31:43.246Z,101507.87
2019-05-13T13:34:17.940Z,101499.66
2019-05-13T13:36:46.693Z,101494.28
2019-05-13T13:39:18.508Z,101490.29
2019-05-13T13:41:53.418Z,101488.88
2019-05-13T13:44:24.508Z,101485.75
2019-05-13T13:46:56.117Z,101486.84
2019-05-13T13:49:27.604Z,101488.81
2019-05-13T13:51:59.169Z,101485.13
2019-05-13T13:54:33.561Z,101486.16
2019-05-13T13:57:03.763Z,101491.17
2019-05-13T13:59:36.332Z,101483.80
2019-05-13T14:02:07.861Z,101489.38
2019-05-13T14:04:39.289Z,101487.69
2019-05-13T14:06:26.943Z,101608.95
2019-05-13T14:07:28.111Z,101489.02
2019-05-13T14:09:43.968Z,101485.62
2019-05-13T14:12:16.335Z,101482.33
2019-05-13T14:14:47.990Z,101492.88
2019-05-13T14:17:21.819Z,101479.27
2019-05-13T14:19:52.955Z,101484.16
2019-05-13T14:22:24.941Z,101484.50
2019-05-13T14:24:56.530Z,101493.25
2019-05-13T14:27:27.826Z,101489.11
2019-05-13T14:30:01.320Z,101490.08
2019-05-13T14:32:33.281Z,101490.73
2019-05-13T14:35:08.894Z,101487.28
2019-05-13T14:37:41.197Z,101480.73
2019-05-13T14:40:14.256Z,101476.95
2019-05-13T14:42:47.034Z,101475.50
2019-05-13T14:45:23.510Z,101477.20
2019-05-13T14:47:54.570Z,101485.23
2019-05-13T14:50:26.861Z,101487.71
2019-05-13T14:52:58.672Z,101488.41
2019-05-13T14:55:32.043Z,101484.75
2019-05-13T14:58:03.556Z,101490.02
2019-05-13T15:00:35.178Z,101484.59
2019-05-13T15:03:06.620Z,101489.55
2019-05-13T15:05:38.551Z,101478.63
2019-05-13T15:08:10.408Z,101474.78
2019-05-13T15:10:42.563Z,101478.97
2019-05-13T15:13:18.657Z,101469.09
2019-05-13T15:15:51.661Z,101470.98
2019-05-13T15:18:23.599Z,101469.50
2019-05-13T15:20:55.456Z,101477.98
2019-05-13T15:23:27.354Z,101477.45
2019-05-13T15:25:59.310Z,101474.47
2019-05-13T15:28:31.872Z,101472.02
2019-05-13T15:31:03.918Z,101476.45
2019-05-13T15:33:37.106Z,101476.03
2019-05-13T15:36:11.923Z,101482.28
2019-05-13T15:38:46.652Z,101489.77
2019-05-13T15:41:20.553Z,101491.22
2019-05-13T15:43:53.589Z,101487.30
2019-05-13T15:46:25.611Z,101487.13
2019-05-13T15:48:57.557Z,101491.04
2019-05-13T15:51:31.428Z,101493.72
2019-05-13T15:54:03.213Z,101492.00
2019-05-13T15:56:35.219Z,101492.48
2019-05-13T15:59:08.927Z,101487.33
2019-05-13T16:01:41.501Z,101483.09
2019-05-13T16:04:13.720Z,101491.91
2019-05-13T16:06:45.452Z,101489.92
2019-05-13T16:09:16.971Z,101495.16
2019-05-13T16:11:48.681Z,101493.82
2019-05-13T16:14:21.991Z,101503.12
2019-05-13T16:16:54.083Z,101506.49
2019-05-13T16:19:25.677Z,101512.20
2019-05-13T16:21:57.374Z,101503.98
2019-05-13T16:24:28.993Z,101503.52
2019-05-13T16:27:02.511Z,101506.84
2019-05-13T16:29:35.667Z,101513.84
2019-05-13T16:32:07.729Z,101524.21
2019-05-13T16:34:41.945Z,101527.52
2019-05-13T16:37:12.916Z,101536.80
2019-05-13T16:39:44.522Z,101524.94
2019-05-13T16:42:16.465Z,101517.50
2019-05-13T16:44:48.055Z,101519.48
2019-05-13T16:47:21.291Z,101523.97
2019-05-13T16:49:53.898Z,101518.59
2019-05-13T16:52:25.402Z,101510.44
2019-05-13T16:54:56.926Z,101518.70
2019-05-13T16:57:28.720Z,101511.75
2019-05-13T17:00:02.478Z,101499.52
2019-05-13T17:02:35.800Z,101493.27
2019-05-13T17:05:08.325Z,101492.38
2019-05-13T17:07:42.210Z,101489.02
2019-05-13T17:10:13.303Z,101490.75
2019-05-13T17:12:44.833Z,101488.03
2019-05-13T17:15:16.338Z,101482.17
2019-05-13T17:17:47.979Z,101479.06
2019-05-13T17:20:21.447Z,101482.09
2019-05-13T17:22:53.063Z,101482.59
2019-05-13T17:25:24.509Z,101482.34
2019-05-13T17:27:56.122Z,101483.69
2019-05-13T17:30:46.588Z,101490.45
2019-05-13T17:33:18.783Z,101487.64
2019-05-13T17:35:50.407Z,101486.02
2019-05-13T17:38:21.956Z,101496.94
2019-05-13T17:40:54.456Z,101501.42
2019-05-13T17:43:26.369Z,101512.84
2019-05-13T17:45:57.651Z,101514.72
2019-05-13T17:48:30.241Z,101522.12
2019-05-13T17:51:02.211Z,101519.92
2019-05-13T17:53:34.887Z,101510.85
2019-05-13T17:56:06.353Z,101513.86
2019-05-13T17:58:37.940Z,101528.01
2019-05-13T18:01:09.367Z,101523.36
2019-05-13T18:03:41.253Z,101524.08
2019-05-13T18:06:12.910Z,101523.45
2019-05-13T18:08:44.549Z,101521.33
2019-05-13T18:11:16.003Z,101527.36
2019-05-13T18:13:47.670Z,101519.45
2019-05-13T18:16:21.552Z,101518.58
2019-05-13T18:18:52.454Z,101518.47
2019-05-13T18:21:23.976Z,101518.19
2019-05-13T18:23:55.744Z,101515.04
2019-05-13T18:26:28.089Z,101513.45
2019-05-13T18:29:01.939Z,101509.62
2019-05-13T18:31:32.998Z,101513.45
2019-05-13T18:34:04.729Z,101514.64
2019-05-13T18:36:36.488Z,101512.05
2019-05-13T18:39:09.340Z,101511.91
2019-05-13T18:41:41.380Z,101514.03
2019-05-13T18:44:13.144Z,101509.78
2019-05-13T18:46:44.639Z,101508.77
2019-05-13T18:49:16.519Z,101505.31
2019-05-13T18:51:47.967Z,101509.09
2019-05-13T18:54:19.537Z,101506.11
2019-05-13T18:56:52.209Z,101505.38
2019-05-13T18:59:24.006Z,101504.63
2019-05-13T19:01:55.445Z,101502.03
2019-05-13T19:04:26.979Z,101499.58
2019-05-13T19:06:58.525Z,101502.64
2019-05-13T19:09:31.111Z,101509.78
2019-05-13T19:12:02.766Z,101502.17
2019-05-13T19:14:34.451Z,101501.95
2019-05-13T19:17:05.985Z,101510.97
2019-05-13T19:19:37.687Z,101504.14
2019-05-13T19:22:09.045Z,101503.42
2019-05-13T19:24:41.668Z,101500.06
2019-05-13T19:27:13.187Z,101502.08
2019-05-13T19:29:44.999Z,101504.52
2019-05-13T19:32:16.474Z,101506.39
2019-05-13T19:34:48.394Z,101505.23
2019-05-13T19:37:22.495Z,101499.72
2019-05-13T19:39:53.788Z,101504.59
2019-05-13T19:42:25.180Z,101500.38
2019-05-13T19:44:56.953Z,101493.53
2019-05-13T19:47:28.400Z,101487.11
2019-05-13T19:50:02.251Z,101484.34
2019-05-13T19:52:34.939Z,101487.66
2019-05-13T19:55:07.463Z,101487.40
2019-05-13T19:57:38.857Z,101485.92
2019-05-13T20:00:13.969Z,101489.68
2019-05-13T20:02:43.632Z,101490.41
2019-05-13T20:05:15.244Z,101492.06
2019-05-13T20:07:46.750Z,101489.86
2019-05-13T20:10:18.516Z,101495.50
2019-05-13T20:12:51.331Z,101492.93
2019-05-13T20:15:23.087Z,101486.25
2019-05-13T20:17:54.487Z,101484.13
2019-05-13T20:20:26.052Z,101485.69
2019-05-13T20:22:57.897Z,101482.00
2019-05-13T20:25:31.238Z,101474.06
2019-05-13T20:28:02.811Z,101474.78
2019-05-13T20:30:34.429Z,101471.47
2019-05-13T20:33:06.088Z,101464.19
2019-05-13T20:35:37.991Z,101467.33
2019-05-13T20:38:11.578Z,101477.14
2019-05-13T20:40:42.901Z,101475.41
2019-05-13T20:43:14.577Z,101478.53
2019-05-13T20:45:46.189Z,101472.27
2019-05-13T20:48:18.649Z,101469.38
2019-05-13T20:50:51.954Z,101467.86
2019-05-13T20:53:23.689Z,101460.82
2019-05-13T20:55:55.361Z,101452.88
2019-05-13T20:58:27.091Z,101457.27
2019-05-13T21:00:58.886Z,101452.75
2019-05-13T21:03:31.608Z,101449.06
2019-05-13T21:06:04.641Z,101452.00
2019-05-13T21:08:36.104Z,101452.25
2019-05-13T21:11:07.674Z,101447.29
2019-05-13T21:13:41.080Z,101448.36
2019-05-13T21:16:12.283Z,101442.56
2019-05-13T21:18:43.828Z,101445.59
2019-05-13T21:21:15.355Z,101444.44
2019-05-13T21:23:48.048Z,101434.61
2019-05-13T21:26:19.489Z,101441.88
2019-05-13T21:28:52.199Z,101433.78
2019-05-13T21:31:23.954Z,101436.17
2019-05-13T21:33:55.471Z,101431.48
2019-05-13T21:36:28.139Z,101420.76
2019-05-13T21:39:01.636Z,101418.86
2019-05-13T21:41:34.879Z,101427.11
2019-05-13T21:44:06.272Z,101423.94
2019-05-13T21:46:37.805Z,101420.70
2019-05-13T21:49:11.637Z,101413.88
2019-05-13T21:51:42.303Z,101411.34
2019-05-13T21:54:13.741Z,101413.77
2019-05-13T21:56:46.863Z,101411.56
2019-05-13T21:59:18.424Z,101414.39
2019-05-13T22:01:52.099Z,101405.63
2019-05-13T22:04:23.023Z,101402.23
2019-05-13T22:06:54.526Z,101409.11
2019-05-13T22:09:25.831Z,101418.09
2019-05-13T22:11:57.289Z,101418.55
2019-05-13T22:14:28.765Z,101416.36
2019-05-13T22:17:01.534Z,101420.81
2019-05-13T22:19:33.195Z,101425.20
2019-05-13T22:22:08.014Z,101426.14
2019-05-13T22:24:41.638Z,101421.74
2019-05-13T22:27:13.266Z,101423.08
2019-05-13T22:29:45.003Z,101417.22
2019-05-13T22:32:16.600Z,101410.16
2019-05-13T22:34:48.135Z,101410.57
2019-05-13T22:37:20.146Z,101414.62
2019-05-13T22:39:51.546Z,101420.57
2019-05-13T22:42:22.991Z,101415.31
2019-05-13T22:44:54.391Z,101417.63
2019-05-13T22:47:27.439Z,101416.98
2019-05-13T22:49:58.965Z,101409.80
2019-05-13T22:52:31.279Z,101413.52
2019-05-13T22:55:02.881Z,101408.72
2019-05-13T22:57:34.780Z,101410.21
2019-05-13T23:00:06.929Z,101403.95
2019-05-13T23:02:42.194Z,101404.89
2019-05-13T23:05:13.184Z,101398.98
2019-05-13T23:07:44.710Z,101395.98
2019-05-13T23:10:16.191Z,101389.85
2019-05-13T23:12:47.894Z,101390.38
2019-05-13T23:15:21.172Z,101387.88
2019-05-13T23:17:52.390Z,101380.02
2019-05-13T23:20:23.690Z,101383.14
2019-05-13T23:22:55.057Z,101388.67
2019-05-13T23:25:26.389Z,101395.97
2019-05-13T23:27:57.862Z,101392.53
2019-05-13T23:30:31.249Z,101392.25
2019-05-13T23:33:02.576Z,101389.59
2019-05-13T23:35:34.069Z,101390.80
2019-05-13T23:38:06.126Z,101394.79
2019-05-13T23:40:38.316Z,101382.02
2019-05-13T23:43:11.322Z,101375.95
2019-05-13T23:45:42.856Z,101383.22
2019-05-13T23:48:14.263Z,101385.59
2019-05-13T23:50:45.654Z,101380.83
2019-05-13T23:53:17.067Z,101376.44
2019-05-13T23:55:48.365Z,101377.36
2019-05-13T23:58:21.646Z,101381.47
